sensor_id;sensor_type;location;lat;lon;timestamp;P1;durP1;ratioP1;P2;durP2;ratioP2
51862;SDS011;37900;52.996;6.278;2023-02-21T00:02:08;4.05;;;2.47;;
51862;SDS011;37900;52.996;6.278;2023-02-21T00:04:53;4.25;;;2.15;;
51862;SDS011;37900;52.996;6.278;2023-02-21T00:07:37;6.20;;;1.88;;
51862;SDS011;37900;52.996;6.278;2023-02-21T00:10:21;3.72;;;1.83;;
51862;SDS011;37900;52.996;6.278;2023-02-21T00:13:06;4.60;;;1.90;;
51862;SDS011;37900;52.996;6.278;2023-02-21T00:15:50;3.45;;;1.55;;
51862;SDS011;37900;52.996;6.278;2023-02-21T00:18:34;4.63;;;1.80;;
51862;SDS011;37900;52.996;6.278;2023-02-21T00:21:20;3.60;;;1.90;;
51862;SDS011;37900;52.996;6.278;2023-02-21T00:24:04;5.57;;;2.00;;
51862;SDS011;37900;52.996;6.278;2023-02-21T00:26:49;4.28;;;1.88;;
51862;SDS011;37900;52.996;6.278;2023-02-21T00:29:33;6.43;;;1.80;;
51862;SDS011;37900;52.996;6.278;2023-02-21T00:32:17;3.60;;;1.90;;
51862;SDS011;37900;52.996;6.278;2023-02-21T00:35:01;4.53;;;1.98;;
51862;SDS011;37900;52.996;6.278;2023-02-21T00:37:51;3.42;;;1.70;;
51862;SDS011;37900;52.996;6.278;2023-02-21T00:40:35;5.40;;;2.30;;
51862;SDS011;37900;52.996;6.278;2023-02-21T00:43:26;3.00;;;1.83;;
51862;SDS011;37900;52.996;6.278;2023-02-21T00:46:11;2.22;;;1.80;;
51862;SDS011;37900;52.996;6.278;2023-02-21T00:48:55;4.00;;;2.00;;
51862;SDS011;37900;52.996;6.278;2023-02-21T00:51:39;3.70;;;2.10;;
51862;SDS011;37900;52.996;6.278;2023-02-21T00:54:24;2.28;;;1.52;;
51862;SDS011;37900;52.996;6.278;2023-02-21T00:57:08;3.58;;;1.73;;
51862;SDS011;37900;52.996;6.278;2023-02-21T00:59:52;3.97;;;2.13;;
51862;SDS011;37900;52.996;6.278;2023-02-21T01:02:36;4.93;;;1.70;;
51862;SDS011;37900;52.996;6.278;2023-02-21T01:05:20;3.53;;;2.03;;
51862;SDS011;37900;52.996;6.278;2023-02-21T01:08:04;4.32;;;1.92;;
51862;SDS011;37900;52.996;6.278;2023-02-21T01:10:48;3.60;;;1.70;;
51862;SDS011;37900;52.996;6.278;2023-02-21T01:13:32;3.65;;;1.83;;
51862;SDS011;37900;52.996;6.278;2023-02-21T01:16:17;4.70;;;1.95;;
51862;SDS011;37900;52.996;6.278;2023-02-21T01:19:01;2.78;;;1.92;;
51862;SDS011;37900;52.996;6.278;2023-02-21T01:21:45;3.20;;;1.60;;
51862;SDS011;37900;52.996;6.278;2023-02-21T01:24:29;3.45;;;2.08;;
51862;SDS011;37900;52.996;6.278;2023-02-21T01:27:14;3.60;;;2.10;;
51862;SDS011;37900;52.996;6.278;2023-02-21T01:29:58;3.40;;;1.65;;
51862;SDS011;37900;52.996;6.278;2023-02-21T01:32:42;4.07;;;1.60;;
51862;SDS011;37900;52.996;6.278;2023-02-21T01:35:26;3.92;;;2.30;;
51862;SDS011;37900;52.996;6.278;2023-02-21T01:38:10;3.05;;;1.70;;
51862;SDS011;37900;52.996;6.278;2023-02-21T01:40:54;4.05;;;1.70;;
51862;SDS011;37900;52.996;6.278;2023-02-21T01:43:54;3.15;;;1.50;;
51862;SDS011;37900;52.996;6.278;2023-02-21T01:46:44;3.90;;;1.52;;
51862;SDS011;37900;52.996;6.278;2023-02-21T01:49:28;4.90;;;2.10;;
51862;SDS011;37900;52.996;6.278;2023-02-21T01:52:13;2.20;;;1.40;;
51862;SDS011;37900;52.996;6.278;2023-02-21T01:54:58;3.63;;;1.67;;
51862;SDS011;37900;52.996;6.278;2023-02-21T01:57:42;2.70;;;1.50;;
51862;SDS011;37900;52.996;6.278;2023-02-21T02:00:28;2.60;;;1.70;;
51862;SDS011;37900;52.996;6.278;2023-02-21T02:03:14;3.22;;;1.60;;
51862;SDS011;37900;52.996;6.278;2023-02-21T02:06:02;3.42;;;1.75;;
51862;SDS011;37900;52.996;6.278;2023-02-21T02:08:49;2.08;;;1.52;;
51862;SDS011;37900;52.996;6.278;2023-02-21T02:23:20;2.30;;;1.70;;
51862;SDS011;37900;52.996;6.278;2023-02-21T02:29:03;2.80;;;1.40;;
51862;SDS011;37900;52.996;6.278;2023-02-21T02:37:17;2.58;;;1.73;;
51862;SDS011;37900;52.996;6.278;2023-02-21T02:40:10;3.00;;;1.60;;
51862;SDS011;37900;52.996;6.278;2023-02-21T02:43:00;2.83;;;1.55;;
51862;SDS011;37900;52.996;6.278;2023-02-21T02:45:54;4.25;;;1.60;;
51862;SDS011;37900;52.996;6.278;2023-02-21T02:51:01;2.25;;;1.45;;
51862;SDS011;37900;52.996;6.278;2023-02-21T02:53:31;3.70;;;1.63;;
51862;SDS011;37900;52.996;6.278;2023-02-21T02:55:58;2.95;;;1.77;;
51862;SDS011;37900;52.996;6.278;2023-02-21T02:58:27;2.42;;;1.48;;
51862;SDS011;37900;52.996;6.278;2023-02-21T03:06:33;2.38;;;1.50;;
51862;SDS011;37900;52.996;6.278;2023-02-21T03:09:18;2.45;;;1.48;;
51862;SDS011;37900;52.996;6.278;2023-02-21T03:11:56;3.78;;;1.67;;
51862;SDS011;37900;52.996;6.278;2023-02-21T03:18:30;3.17;;;1.50;;
51862;SDS011;37900;52.996;6.278;2023-02-21T03:21:13;2.85;;;1.38;;
51862;SDS011;37900;52.996;6.278;2023-02-21T03:23:43;3.50;;;1.67;;
51862;SDS011;37900;52.996;6.278;2023-02-21T03:26:11;2.80;;;1.38;;
51862;SDS011;37900;52.996;6.278;2023-02-21T03:28:40;2.72;;;1.30;;
51862;SDS011;37900;52.996;6.278;2023-02-21T03:31:08;2.42;;;1.50;;
51862;SDS011;37900;52.996;6.278;2023-02-21T03:33:36;3.97;;;1.63;;
51862;SDS011;37900;52.996;6.278;2023-02-21T03:36:04;3.15;;;2.05;;
51862;SDS011;37900;52.996;6.278;2023-02-21T03:38:30;2.47;;;1.55;;
51862;SDS011;37900;52.996;6.278;2023-02-21T03:40:57;5.28;;;1.80;;
51862;SDS011;37900;52.996;6.278;2023-02-21T03:43:23;2.03;;;1.38;;
51862;SDS011;37900;52.996;6.278;2023-02-21T03:45:48;2.60;;;1.88;;
51862;SDS011;37900;52.996;6.278;2023-02-21T03:48:14;2.85;;;1.50;;
51862;SDS011;37900;52.996;6.278;2023-02-21T03:50:40;2.30;;;1.60;;
51862;SDS011;37900;52.996;6.278;2023-02-21T03:53:05;3.03;;;1.70;;
51862;SDS011;37900;52.996;6.278;2023-02-21T03:55:31;2.33;;;1.40;;
51862;SDS011;37900;52.996;6.278;2023-02-21T03:57:57;3.42;;;1.50;;
51862;SDS011;37900;52.996;6.278;2023-02-21T04:00:23;3.13;;;1.75;;
51862;SDS011;37900;52.996;6.278;2023-02-21T04:02:49;2.10;;;1.50;;
51862;SDS011;37900;52.996;6.278;2023-02-21T04:05:14;2.50;;;1.50;;
51862;SDS011;37900;52.996;6.278;2023-02-21T04:07:40;1.88;;;1.40;;
51862;SDS011;37900;52.996;6.278;2023-02-21T04:10:06;2.70;;;1.50;;
51862;SDS011;37900;52.996;6.278;2023-02-21T04:12:32;3.28;;;1.70;;
51862;SDS011;37900;52.996;6.278;2023-02-21T04:14:58;1.77;;;1.35;;
51862;SDS011;37900;52.996;6.278;2023-02-21T04:17:23;3.33;;;1.42;;
51862;SDS011;37900;52.996;6.278;2023-02-21T04:19:50;2.65;;;1.52;;
51862;SDS011;37900;52.996;6.278;2023-02-21T04:22:16;2.75;;;1.20;;
51862;SDS011;37900;52.996;6.278;2023-02-21T04:24:42;3.03;;;1.70;;
51862;SDS011;37900;52.996;6.278;2023-02-21T04:27:07;3.22;;;1.58;;
51862;SDS011;37900;52.996;6.278;2023-02-21T04:29:33;4.00;;;1.38;;
51862;SDS011;37900;52.996;6.278;2023-02-21T04:31:59;1.95;;;1.25;;
51862;SDS011;37900;52.996;6.278;2023-02-21T04:34:24;2.75;;;1.60;;
51862;SDS011;37900;52.996;6.278;2023-02-21T04:36:50;3.53;;;1.80;;
51862;SDS011;37900;52.996;6.278;2023-02-21T04:39:16;2.47;;;1.48;;
51862;SDS011;37900;52.996;6.278;2023-02-21T04:41:41;2.67;;;1.50;;
51862;SDS011;37900;52.996;6.278;2023-02-21T04:44:07;2.58;;;1.50;;
51862;SDS011;37900;52.996;6.278;2023-02-21T04:46:33;2.00;;;1.13;;
51862;SDS011;37900;52.996;6.278;2023-02-21T04:48:59;1.67;;;1.27;;
51862;SDS011;37900;52.996;6.278;2023-02-21T04:51:25;3.50;;;1.75;;
51862;SDS011;37900;52.996;6.278;2023-02-21T04:53:51;3.95;;;1.58;;
51862;SDS011;37900;52.996;6.278;2023-02-21T04:56:19;4.50;;;1.63;;
51862;SDS011;37900;52.996;6.278;2023-02-21T04:58:46;3.03;;;1.40;;
51862;SDS011;37900;52.996;6.278;2023-02-21T05:01:13;1.92;;;1.42;;
51862;SDS011;37900;52.996;6.278;2023-02-21T05:03:39;2.25;;;1.40;;
51862;SDS011;37900;52.996;6.278;2023-02-21T05:06:05;3.47;;;1.40;;
51862;SDS011;37900;52.996;6.278;2023-02-21T05:08:31;2.38;;;1.50;;
51862;SDS011;37900;52.996;6.278;2023-02-21T05:10:57;2.58;;;1.48;;
51862;SDS011;37900;52.996;6.278;2023-02-21T05:13:23;2.55;;;1.30;;
51862;SDS011;37900;52.996;6.278;2023-02-21T05:15:48;1.67;;;1.30;;
51862;SDS011;37900;52.996;6.278;2023-02-21T05:18:14;2.88;;;1.60;;
51862;SDS011;37900;52.996;6.278;2023-02-21T05:20:47;2.30;;;1.40;;
51862;SDS011;37900;52.996;6.278;2023-02-21T05:23:13;3.20;;;1.70;;
51862;SDS011;37900;52.996;6.278;2023-02-21T05:28:07;2.35;;;1.55;;
51862;SDS011;37900;52.996;6.278;2023-02-21T05:30:32;1.67;;;1.42;;
51862;SDS011;37900;52.996;6.278;2023-02-21T05:32:58;2.00;;;1.60;;
51862;SDS011;37900;52.996;6.278;2023-02-21T05:35:25;2.25;;;1.73;;
51862;SDS011;37900;52.996;6.278;2023-02-21T05:37:50;2.85;;;1.30;;
51862;SDS011;37900;52.996;6.278;2023-02-21T05:40:16;2.83;;;1.55;;
51862;SDS011;37900;52.996;6.278;2023-02-21T05:42:42;2.22;;;1.42;;
51862;SDS011;37900;52.996;6.278;2023-02-21T05:45:08;3.33;;;1.40;;
51862;SDS011;37900;52.996;6.278;2023-02-21T05:47:35;1.75;;;1.23;;
51862;SDS011;37900;52.996;6.278;2023-02-21T05:50:01;1.88;;;1.55;;
51862;SDS011;37900;52.996;6.278;2023-02-21T05:52:28;3.05;;;1.40;;
51862;SDS011;37900;52.996;6.278;2023-02-21T05:54:53;2.05;;;1.40;;
51862;SDS011;37900;52.996;6.278;2023-02-21T05:57:19;1.30;;;1.10;;
51862;SDS011;37900;52.996;6.278;2023-02-21T05:59:45;1.83;;;1.02;;
51862;SDS011;37900;52.996;6.278;2023-02-21T06:02:14;2.35;;;1.50;;
51862;SDS011;37900;52.996;6.278;2023-02-21T06:04:40;1.45;;;1.13;;
51862;SDS011;37900;52.996;6.278;2023-02-21T06:07:06;1.45;;;1.10;;
51862;SDS011;37900;52.996;6.278;2023-02-21T06:09:31;2.47;;;1.55;;
51862;SDS011;37900;52.996;6.278;2023-02-21T06:11:57;2.25;;;1.33;;
51862;SDS011;37900;52.996;6.278;2023-02-21T06:14:23;1.98;;;1.25;;
51862;SDS011;37900;52.996;6.278;2023-02-21T06:16:50;3.15;;;1.35;;
51862;SDS011;37900;52.996;6.278;2023-02-21T06:19:16;1.90;;;1.40;;
51862;SDS011;37900;52.996;6.278;2023-02-21T06:21:43;2.13;;;1.40;;
51862;SDS011;37900;52.996;6.278;2023-02-21T06:24:10;4.37;;;1.80;;
51862;SDS011;37900;52.996;6.278;2023-02-21T06:26:36;2.55;;;1.52;;
51862;SDS011;37900;52.996;6.278;2023-02-21T06:29:03;2.58;;;1.35;;
51862;SDS011;37900;52.996;6.278;2023-02-21T06:31:29;2.80;;;1.58;;
51862;SDS011;37900;52.996;6.278;2023-02-21T06:33:55;2.20;;;1.23;;
51862;SDS011;37900;52.996;6.278;2023-02-21T06:36:23;2.22;;;1.33;;
51862;SDS011;37900;52.996;6.278;2023-02-21T06:38:51;1.70;;;1.10;;
51862;SDS011;37900;52.996;6.278;2023-02-21T06:41:19;2.42;;;1.30;;
51862;SDS011;37900;52.996;6.278;2023-02-21T06:43:51;2.20;;;1.40;;
51862;SDS011;37900;52.996;6.278;2023-02-21T06:46:18;2.67;;;1.30;;
51862;SDS011;37900;52.996;6.278;2023-02-21T06:51:11;1.98;;;1.40;;
51862;SDS011;37900;52.996;6.278;2023-02-21T06:53:39;2.80;;;1.52;;
51862;SDS011;37900;52.996;6.278;2023-02-21T06:58:31;1.20;;;1.00;;
51862;SDS011;37900;52.996;6.278;2023-02-21T07:00:57;2.58;;;1.55;;
51862;SDS011;37900;52.996;6.278;2023-02-21T07:03:23;1.70;;;0.98;;
51862;SDS011;37900;52.996;6.278;2023-02-21T07:05:49;1.67;;;1.25;;
51862;SDS011;37900;52.996;6.278;2023-02-21T07:08:15;1.20;;;1.10;;
51862;SDS011;37900;52.996;6.278;2023-02-21T07:10:40;1.98;;;1.45;;
51862;SDS011;37900;52.996;6.278;2023-02-21T07:13:06;1.65;;;1.25;;
51862;SDS011;37900;52.996;6.278;2023-02-21T07:15:32;3.63;;;2.30;;
51862;SDS011;37900;52.996;6.278;2023-02-21T07:17:57;4.03;;;2.67;;
51862;SDS011;37900;52.996;6.278;2023-02-21T07:20:23;4.82;;;2.63;;
51862;SDS011;37900;52.996;6.278;2023-02-21T07:22:52;5.32;;;2.50;;
51862;SDS011;37900;52.996;6.278;2023-02-21T07:25:19;5.03;;;2.80;;
51862;SDS011;37900;52.996;6.278;2023-02-21T07:27:46;6.70;;;2.80;;
51862;SDS011;37900;52.996;6.278;2023-02-21T07:30:13;5.78;;;3.50;;
51862;SDS011;37900;52.996;6.278;2023-02-21T07:32:39;5.13;;;2.80;;
51862;SDS011;37900;52.996;6.278;2023-02-21T07:35:05;5.35;;;3.15;;
51862;SDS011;37900;52.996;6.278;2023-02-21T07:37:31;7.07;;;3.65;;
51862;SDS011;37900;52.996;6.278;2023-02-21T07:39:57;4.80;;;3.08;;
51862;SDS011;37900;52.996;6.278;2023-02-21T07:42:23;6.53;;;3.08;;
51862;SDS011;37900;52.996;6.278;2023-02-21T07:44:53;5.90;;;2.42;;
51862;SDS011;37900;52.996;6.278;2023-02-21T07:47:21;5.88;;;2.97;;
51862;SDS011;37900;52.996;6.278;2023-02-21T07:49:47;4.75;;;2.70;;
51862;SDS011;37900;52.996;6.278;2023-02-21T07:52:12;3.28;;;2.17;;
51862;SDS011;37900;52.996;6.278;2023-02-21T07:54:38;6.18;;;2.80;;
51862;SDS011;37900;52.996;6.278;2023-02-21T07:57:04;6.22;;;2.65;;
51862;SDS011;37900;52.996;6.278;2023-02-21T07:59:29;4.50;;;2.63;;
51862;SDS011;37900;52.996;6.278;2023-02-21T08:01:55;4.05;;;2.50;;
51862;SDS011;37900;52.996;6.278;2023-02-21T08:04:21;4.90;;;2.78;;
51862;SDS011;37900;52.996;6.278;2023-02-21T08:06:48;5.43;;;2.72;;
51862;SDS011;37900;52.996;6.278;2023-02-21T08:09:14;5.65;;;3.15;;
51862;SDS011;37900;52.996;6.278;2023-02-21T08:11:40;3.67;;;2.25;;
51862;SDS011;37900;52.996;6.278;2023-02-21T08:14:06;4.07;;;2.13;;
51862;SDS011;37900;52.996;6.278;2023-02-21T08:16:32;4.22;;;2.42;;
51862;SDS011;37900;52.996;6.278;2023-02-21T08:18:57;5.25;;;2.58;;
51862;SDS011;37900;52.996;6.278;2023-02-21T08:21:24;4.38;;;2.50;;
51862;SDS011;37900;52.996;6.278;2023-02-21T08:23:53;5.40;;;2.88;;
51862;SDS011;37900;52.996;6.278;2023-02-21T08:26:19;4.47;;;2.60;;
51862;SDS011;37900;52.996;6.278;2023-02-21T08:28:45;4.22;;;2.70;;
51862;SDS011;37900;52.996;6.278;2023-02-21T08:31:10;4.50;;;2.30;;
51862;SDS011;37900;52.996;6.278;2023-02-21T08:33:36;5.90;;;3.45;;
51862;SDS011;37900;52.996;6.278;2023-02-21T08:36:02;4.65;;;2.65;;
51862;SDS011;37900;52.996;6.278;2023-02-21T08:38:29;4.80;;;2.20;;
51862;SDS011;37900;52.996;6.278;2023-02-21T08:40:55;5.10;;;2.63;;
51862;SDS011;37900;52.996;6.278;2023-02-21T08:43:22;5.40;;;2.78;;
51862;SDS011;37900;52.996;6.278;2023-02-21T08:45:48;3.05;;;2.22;;
51862;SDS011;37900;52.996;6.278;2023-02-21T08:48:14;4.05;;;2.50;;
51862;SDS011;37900;52.996;6.278;2023-02-21T08:50:40;4.35;;;2.20;;
51862;SDS011;37900;52.996;6.278;2023-02-21T08:53:06;4.00;;;2.45;;
51862;SDS011;37900;52.996;6.278;2023-02-21T08:55:31;4.28;;;2.45;;
51862;SDS011;37900;52.996;6.278;2023-02-21T08:57:57;3.30;;;2.10;;
51862;SDS011;37900;52.996;6.278;2023-02-21T09:00:23;3.25;;;2.28;;
51862;SDS011;37900;52.996;6.278;2023-02-21T09:02:52;5.00;;;2.33;;
51862;SDS011;37900;52.996;6.278;2023-02-21T09:05:20;4.13;;;2.40;;
51862;SDS011;37900;52.996;6.278;2023-02-21T09:07:49;3.97;;;2.00;;
51862;SDS011;37900;52.996;6.278;2023-02-21T09:10:16;3.88;;;2.25;;
51862;SDS011;37900;52.996;6.278;2023-02-21T09:12:42;5.65;;;2.55;;
51862;SDS011;37900;52.996;6.278;2023-02-21T09:15:07;4.18;;;2.22;;
51862;SDS011;37900;52.996;6.278;2023-02-21T09:17:34;3.88;;;2.38;;
51862;SDS011;37900;52.996;6.278;2023-02-21T09:20:01;3.15;;;1.90;;
51862;SDS011;37900;52.996;6.278;2023-02-21T09:22:30;4.38;;;2.38;;
51862;SDS011;37900;52.996;6.278;2023-02-21T09:24:57;4.40;;;2.60;;
51862;SDS011;37900;52.996;6.278;2023-02-21T09:27:24;6.40;;;2.15;;
51862;SDS011;37900;52.996;6.278;2023-02-21T09:32:36;4.47;;;2.50;;
51862;SDS011;37900;52.996;6.278;2023-02-21T09:35:03;3.55;;;2.17;;
51862;SDS011;37900;52.996;6.278;2023-02-21T09:37:28;3.40;;;2.08;;
51862;SDS011;37900;52.996;6.278;2023-02-21T09:42:23;3.72;;;1.95;;
51862;SDS011;37900;52.996;6.278;2023-02-21T09:44:55;3.38;;;1.95;;
51862;SDS011;37900;52.996;6.278;2023-02-21T09:47:31;3.33;;;2.10;;
51862;SDS011;37900;52.996;6.278;2023-02-21T09:50:05;3.05;;;2.08;;
51862;SDS011;37900;52.996;6.278;2023-02-21T09:52:36;3.13;;;1.98;;
51862;SDS011;37900;52.996;6.278;2023-02-21T09:55:10;3.70;;;2.15;;
51862;SDS011;37900;52.996;6.278;2023-02-21T09:57:46;4.28;;;2.72;;
51862;SDS011;37900;52.996;6.278;2023-02-21T10:00:16;3.03;;;2.20;;
51862;SDS011;37900;52.996;6.278;2023-02-21T10:10:35;3.25;;;2.05;;
51862;SDS011;37900;52.996;6.278;2023-02-21T10:15:53;2.80;;;2.17;;
51862;SDS011;37900;52.996;6.278;2023-02-21T10:18:41;2.95;;;1.90;;
51862;SDS011;37900;52.996;6.278;2023-02-21T10:21:23;3.47;;;1.90;;
51862;SDS011;37900;52.996;6.278;2023-02-21T10:23:53;3.17;;;2.15;;
51862;SDS011;37900;52.996;6.278;2023-02-21T10:26:23;3.38;;;2.10;;
51862;SDS011;37900;52.996;6.278;2023-02-21T10:28:52;3.05;;;2.00;;
51862;SDS011;37900;52.996;6.278;2023-02-21T10:31:29;2.60;;;2.00;;
51862;SDS011;37900;52.996;6.278;2023-02-21T10:34:01;2.85;;;1.85;;
51862;SDS011;37900;52.996;6.278;2023-02-21T10:36:29;4.22;;;2.17;;
51862;SDS011;37900;52.996;6.278;2023-02-21T10:39:02;2.45;;;1.65;;
51862;SDS011;37900;52.996;6.278;2023-02-21T10:41:34;4.05;;;1.90;;
51862;SDS011;37900;52.996;6.278;2023-02-21T10:44:05;3.05;;;2.22;;
51862;SDS011;37900;52.996;6.278;2023-02-21T10:49:48;4.20;;;2.30;;
51862;SDS011;37900;52.996;6.278;2023-02-21T10:52:25;2.45;;;1.83;;
51862;SDS011;37900;52.996;6.278;2023-02-21T10:55:14;3.42;;;1.80;;
51862;SDS011;37900;52.996;6.278;2023-02-21T10:57:44;3.17;;;1.90;;
51862;SDS011;37900;52.996;6.278;2023-02-21T11:00:23;2.70;;;1.92;;
51862;SDS011;37900;52.996;6.278;2023-02-21T11:03:05;3.03;;;2.05;;
51862;SDS011;37900;52.996;6.278;2023-02-21T11:05:37;2.95;;;1.92;;
51862;SDS011;37900;52.996;6.278;2023-02-21T11:08:07;2.55;;;1.73;;
51862;SDS011;37900;52.996;6.278;2023-02-21T11:10:35;3.47;;;1.92;;
51862;SDS011;37900;52.996;6.278;2023-02-21T11:15:37;3.33;;;2.03;;
51862;SDS011;37900;52.996;6.278;2023-02-21T11:18:13;2.70;;;1.90;;
51862;SDS011;37900;52.996;6.278;2023-02-21T11:20:39;3.60;;;2.33;;
51862;SDS011;37900;52.996;6.278;2023-02-21T11:23:19;4.68;;;1.70;;
51862;SDS011;37900;52.996;6.278;2023-02-21T11:25:53;4.22;;;2.15;;
51862;SDS011;37900;52.996;6.278;2023-02-21T11:28:35;2.35;;;1.67;;
51862;SDS011;37900;52.996;6.278;2023-02-21T11:33:56;3.10;;;1.70;;
51862;SDS011;37900;52.996;6.278;2023-02-21T11:36:29;2.45;;;1.70;;
51862;SDS011;37900;52.996;6.278;2023-02-21T11:39:24;3.65;;;2.00;;
51862;SDS011;37900;52.996;6.278;2023-02-21T11:41:56;3.80;;;2.25;;
51862;SDS011;37900;52.996;6.278;2023-02-21T11:47:11;4.07;;;1.77;;
51862;SDS011;37900;52.996;6.278;2023-02-21T11:50:06;1.75;;;1.35;;
51862;SDS011;37900;52.996;6.278;2023-02-21T12:01:37;3.53;;;1.63;;
51862;SDS011;37900;52.996;6.278;2023-02-21T12:04:33;2.40;;;1.70;;
51862;SDS011;37900;52.996;6.278;2023-02-21T12:10:18;3.13;;;1.50;;
51862;SDS011;37900;52.996;6.278;2023-02-21T12:16:11;2.53;;;1.52;;
51862;SDS011;37900;52.996;6.278;2023-02-21T12:24:49;2.60;;;1.50;;
51862;SDS011;37900;52.996;6.278;2023-02-21T12:30:38;3.15;;;1.23;;
51862;SDS011;37900;52.996;6.278;2023-02-21T12:33:26;2.63;;;1.77;;
51862;SDS011;37900;52.996;6.278;2023-02-21T12:44:25;1.92;;;1.35;;
51862;SDS011;37900;52.996;6.278;2023-02-21T12:47:00;2.35;;;1.58;;
51862;SDS011;37900;52.996;6.278;2023-02-21T12:49:31;3.00;;;1.65;;
51862;SDS011;37900;52.996;6.278;2023-02-21T12:52:05;1.63;;;1.35;;
51862;SDS011;37900;52.996;6.278;2023-02-21T12:57:30;2.13;;;1.60;;
51862;SDS011;37900;52.996;6.278;2023-02-21T13:00:19;3.92;;;1.90;;
51862;SDS011;37900;52.996;6.278;2023-02-21T13:06:04;2.83;;;1.38;;
51862;SDS011;37900;52.996;6.278;2023-02-21T13:11:44;4.40;;;2.08;;
51862;SDS011;37900;52.996;6.278;2023-02-21T13:14:23;4.60;;;1.50;;
51862;SDS011;37900;52.996;6.278;2023-02-21T13:17:17;2.33;;;1.35;;
51862;SDS011;37900;52.996;6.278;2023-02-21T13:25:17;3.35;;;1.75;;
51862;SDS011;37900;52.996;6.278;2023-02-21T13:30:56;2.53;;;1.58;;
51862;SDS011;37900;52.996;6.278;2023-02-21T13:35:59;2.55;;;1.45;;
51862;SDS011;37900;52.996;6.278;2023-02-21T13:38:26;2.65;;;1.50;;
51862;SDS011;37900;52.996;6.278;2023-02-21T13:41:02;3.22;;;1.65;;
51862;SDS011;37900;52.996;6.278;2023-02-21T13:43:34;2.67;;;1.67;;
51862;SDS011;37900;52.996;6.278;2023-02-21T13:57:45;2.53;;;1.40;;
51862;SDS011;37900;52.996;6.278;2023-02-21T14:10:50;1.92;;;1.65;;
51862;SDS011;37900;52.996;6.278;2023-02-21T14:21:08;3.15;;;1.50;;
51862;SDS011;37900;52.996;6.278;2023-02-21T14:23:44;1.88;;;1.40;;
51862;SDS011;37900;52.996;6.278;2023-02-21T14:37:23;1.20;;;1.10;;
51862;SDS011;37900;52.996;6.278;2023-02-21T15:01:51;4.43;;;1.80;;
51862;SDS011;37900;52.996;6.278;2023-02-21T15:09:43;2.17;;;1.60;;
51862;SDS011;37900;52.996;6.278;2023-02-21T15:12:15;4.53;;;2.53;;
51862;SDS011;37900;52.996;6.278;2023-02-21T15:15:00;3.33;;;1.77;;
51862;SDS011;37900;52.996;6.278;2023-02-21T15:17:26;7.55;;;2.15;;
51862;SDS011;37900;52.996;6.278;2023-02-21T15:20:04;3.88;;;2.13;;
51862;SDS011;37900;52.996;6.278;2023-02-21T15:22:38;2.60;;;1.75;;
51862;SDS011;37900;52.996;6.278;2023-02-21T15:27:54;2.03;;;1.60;;
51862;SDS011;37900;52.996;6.278;2023-02-21T15:32:55;3.28;;;1.70;;
51862;SDS011;37900;52.996;6.278;2023-02-21T15:35:25;3.53;;;1.95;;
51862;SDS011;37900;52.996;6.278;2023-02-21T15:37:55;2.22;;;1.50;;
51862;SDS011;37900;52.996;6.278;2023-02-21T15:42:49;3.70;;;1.52;;
51862;SDS011;37900;52.996;6.278;2023-02-21T15:45:21;3.42;;;1.65;;
51862;SDS011;37900;52.996;6.278;2023-02-21T15:47:52;3.85;;;1.63;;
51862;SDS011;37900;52.996;6.278;2023-02-21T15:53:19;4.10;;;1.60;;
51862;SDS011;37900;52.996;6.278;2023-02-21T15:55:49;3.38;;;1.95;;
51862;SDS011;37900;52.996;6.278;2023-02-21T16:00:48;1.88;;;1.50;;
51862;SDS011;37900;52.996;6.278;2023-02-21T16:03:38;5.30;;;1.70;;
51862;SDS011;37900;52.996;6.278;2023-02-21T16:08:36;1.85;;;1.52;;
51862;SDS011;37900;52.996;6.278;2023-02-21T16:11:04;2.50;;;1.48;;
51862;SDS011;37900;52.996;6.278;2023-02-21T16:13:35;3.40;;;1.90;;
51862;SDS011;37900;52.996;6.278;2023-02-21T16:16:04;3.47;;;1.67;;
51862;SDS011;37900;52.996;6.278;2023-02-21T16:18:32;3.25;;;1.67;;
51862;SDS011;37900;52.996;6.278;2023-02-21T16:20:59;3.17;;;1.60;;
51862;SDS011;37900;52.996;6.278;2023-02-21T16:23:40;3.45;;;2.05;;
51862;SDS011;37900;52.996;6.278;2023-02-21T16:28:40;2.30;;;1.40;;
51862;SDS011;37900;52.996;6.278;2023-02-21T16:31:08;2.75;;;1.35;;
51862;SDS011;37900;52.996;6.278;2023-02-21T16:33:39;1.70;;;1.50;;
51862;SDS011;37900;52.996;6.278;2023-02-21T16:36:06;2.88;;;1.48;;
51862;SDS011;37900;52.996;6.278;2023-02-21T16:38:34;1.98;;;1.38;;
51862;SDS011;37900;52.996;6.278;2023-02-21T16:41:00;3.15;;;1.60;;
51862;SDS011;37900;52.996;6.278;2023-02-21T16:43:26;2.53;;;1.40;;
51862;SDS011;37900;52.996;6.278;2023-02-21T16:45:54;1.83;;;1.48;;
51862;SDS011;37900;52.996;6.278;2023-02-21T16:48:22;1.63;;;1.25;;
51862;SDS011;37900;52.996;6.278;2023-02-21T16:50:56;2.83;;;2.00;;
51862;SDS011;37900;52.996;6.278;2023-02-21T16:53:24;3.10;;;1.50;;
51862;SDS011;37900;52.996;6.278;2023-02-21T16:55:49;2.13;;;1.50;;
51862;SDS011;37900;52.996;6.278;2023-02-21T17:01:00;2.08;;;1.50;;
51862;SDS011;37900;52.996;6.278;2023-02-21T17:03:28;2.17;;;1.48;;
51862;SDS011;37900;52.996;6.278;2023-02-21T17:05:54;1.70;;;1.58;;
51862;SDS011;37900;52.996;6.278;2023-02-21T17:08:22;2.53;;;1.38;;
51862;SDS011;37900;52.996;6.278;2023-02-21T17:10:49;2.28;;;1.40;;
51862;SDS011;37900;52.996;6.278;2023-02-21T17:13:15;2.00;;;1.35;;
51862;SDS011;37900;52.996;6.278;2023-02-21T17:15:41;1.45;;;1.33;;
51862;SDS011;37900;52.996;6.278;2023-02-21T17:18:06;1.70;;;1.60;;
51862;SDS011;37900;52.996;6.278;2023-02-21T17:20:32;2.95;;;1.30;;
51862;SDS011;37900;52.996;6.278;2023-02-21T19:36:01;7.65;;;5.22;;
51862;SDS011;37900;52.996;6.278;2023-02-21T19:38:28;12.90;;;5.40;;
51862;SDS011;37900;52.996;6.278;2023-02-21T19:40:54;11.10;;;5.70;;
51862;SDS011;37900;52.996;6.278;2023-02-21T19:43:20;10.95;;;5.35;;
51862;SDS011;37900;52.996;6.278;2023-02-21T19:45:45;10.23;;;5.40;;
51862;SDS011;37900;52.996;6.278;2023-02-21T19:48:11;9.70;;;5.05;;
51862;SDS011;37900;52.996;6.278;2023-02-21T19:50:37;10.32;;;5.05;;
51862;SDS011;37900;52.996;6.278;2023-02-21T19:53:04;10.02;;;5.35;;
51862;SDS011;37900;52.996;6.278;2023-02-21T19:55:30;8.77;;;4.78;;
51862;SDS011;37900;52.996;6.278;2023-02-21T19:57:56;10.63;;;4.68;;
51862;SDS011;37900;52.996;6.278;2023-02-21T20:00:22;11.25;;;4.82;;
51862;SDS011;37900;52.996;6.278;2023-02-21T20:02:50;7.78;;;4.28;;
51862;SDS011;37900;52.996;6.278;2023-02-21T20:05:16;9.35;;;4.93;;
51862;SDS011;37900;52.996;6.278;2023-02-21T20:07:42;9.90;;;5.05;;
51862;SDS011;37900;52.996;6.278;2023-02-21T20:10:08;8.05;;;4.90;;
51862;SDS011;37900;52.996;6.278;2023-02-21T20:12:35;10.90;;;5.53;;
51862;SDS011;37900;52.996;6.278;2023-02-21T20:15:01;11.57;;;5.53;;
51862;SDS011;37900;52.996;6.278;2023-02-21T20:17:27;9.18;;;4.55;;
51862;SDS011;37900;52.996;6.278;2023-02-21T20:19:54;11.18;;;5.20;;
51862;SDS011;37900;52.996;6.278;2023-02-21T20:22:20;11.38;;;5.00;;
51862;SDS011;37900;52.996;6.278;2023-02-21T20:24:45;11.20;;;5.07;;
51862;SDS011;37900;52.996;6.278;2023-02-21T20:27:12;7.10;;;5.13;;
51862;SDS011;37900;52.996;6.278;2023-02-21T20:32:04;8.07;;;4.50;;
51862;SDS011;37900;52.996;6.278;2023-02-21T20:34:36;11.23;;;5.32;;
51862;SDS011;37900;52.996;6.278;2023-02-21T20:37:03;8.27;;;4.68;;
51862;SDS011;37900;52.996;6.278;2023-02-21T20:39:29;10.15;;;5.00;;
51862;SDS011;37900;52.996;6.278;2023-02-21T20:41:59;8.95;;;5.03;;
51862;SDS011;37900;52.996;6.278;2023-02-21T20:44:31;6.85;;;4.32;;
51862;SDS011;37900;52.996;6.278;2023-02-21T20:46:58;11.93;;;5.55;;
51862;SDS011;37900;52.996;6.278;2023-02-21T20:49:25;8.80;;;4.70;;
51862;SDS011;37900;52.996;6.278;2023-02-21T20:51:51;9.68;;;5.28;;
51862;SDS011;37900;52.996;6.278;2023-02-21T20:54:18;9.82;;;5.00;;
51862;SDS011;37900;52.996;6.278;2023-02-21T20:56:46;10.05;;;5.28;;
51862;SDS011;37900;52.996;6.278;2023-02-21T20:59:15;8.80;;;5.18;;